createdAt,value
2023-03-06T00:01:17.180Z,95382.59
2023-03-06T00:04:19.290Z,95381.75
2023-03-06T00:07:20.916Z,95372.44
2023-03-06T00:10:25.281Z,95376.75
2023-03-06T00:13:30.427Z,95369.69
2023-03-06T00:16:32.585Z,95357.03
2023-03-06T00:19:35.588Z,95368.13
2023-03-06T00:22:38.272Z,95364.66
2023-03-06T00:25:45.740Z,95350.94
2023-03-06T00:28:47.330Z,95345.78
2023-03-06T00:31:50.927Z,95349.13
2023-03-06T00:34:53.921Z,95349.25
2023-03-06T00:37:55.627Z,95340.50
2023-03-06T00:40:57.180Z,95341.47
2023-03-06T00:44:00.203Z,95338.84
2023-03-06T00:47:02.761Z,95338.00
2023-03-06T00:50:06.256Z,95328.44
2023-03-06T00:53:07.919Z,95318.16
2023-03-06T00:56:10.951Z,95319.69
2023-03-06T00:59:12.620Z,95321.47
2023-03-06T01:02:14.350Z,95300.09
2023-03-06T01:05:16.099Z,95315.53
2023-03-06T01:08:17.822Z,95300.69
2023-03-06T01:11:19.466Z,95292.19
2023-03-06T01:14:21.386Z,95293.75
2023-03-06T01:17:23.032Z,95273.75
2023-03-06T01:20:24.800Z,95263.50
2023-03-06T01:23:26.397Z,95278.19
2023-03-06T01:26:31.750Z,95263.38
2023-03-06T01:29:35.431Z,95259.91
2023-03-06T01:32:37.659Z,95256.44
2023-03-06T01:35:40.580Z,95247.72
2023-03-06T01:38:42.941Z,95244.25
2023-03-06T01:41:45.982Z,95246.16
2023-03-06T01:45:28.048Z,95241.72
2023-03-06T01:48:31.264Z,95233.97
2023-03-06T01:51:43.550Z,95230.66
2023-03-06T01:54:56.689Z,95218.44
2023-03-06T01:58:07.136Z,95223.72
2023-03-06T02:01:09.733Z,95222.03
2023-03-06T02:04:12.128Z,95224.53
2023-03-06T02:07:15.501Z,95216.66
2023-03-06T02:10:18.697Z,95208.03
2023-03-06T02:13:20.349Z,95200.13
2023-03-06T02:16:29.746Z,95201.94
2023-03-06T02:20:03.471Z,95200.13
2023-03-06T02:23:12.534Z,95196.78
2023-03-06T02:26:15.544Z,95194.28
2023-03-06T02:29:25.461Z,95188.34
2023-03-06T02:32:27.253Z,95189.16
2023-03-06T02:35:32.592Z,95178.75
2023-03-06T02:38:40.805Z,95184.03
2023-03-06T02:41:42.557Z,95177.94
2023-03-06T02:44:44.335Z,95180.56
2023-03-06T02:47:45.982Z,95164.34
2023-03-06T02:50:49.049Z,95171.94
2023-03-06T02:53:50.750Z,95168.47
2023-03-06T02:56:52.486Z,95160.72
2023-03-06T02:59:54.208Z,95157.28
2023-03-06T03:02:56.829Z,95158.25
2023-03-06T03:05:58.897Z,95146.16
2023-03-06T03:09:07.030Z,95152.00
2023-03-06T03:12:10.055Z,95134.53
2023-03-06T03:15:11.816Z,95144.25
2023-03-06T03:18:13.518Z,95146.03
2023-03-06T03:21:15.627Z,95141.84
2023-03-06T03:24:17.375Z,95146.03
2023-03-06T03:27:19.022Z,95152.25
2023-03-06T03:30:20.814Z,95142.69
2023-03-06T03:33:22.997Z,95137.56
2023-03-06T03:36:26.050Z,95126.91
2023-03-06T03:39:29.135Z,95134.78
2023-03-06T03:42:32.834Z,95136.72
2023-03-06T03:45:34.502Z,95122.59
2023-03-06T03:48:37.517Z,95128.16
2023-03-06T03:51:41.210Z,95121.75
2023-03-06T03:54:43.784Z,95121.75
2023-03-06T03:57:45.499Z,95110.69
2023-03-06T04:00:48.229Z,95112.19
2023-03-06T04:03:50.668Z,95109.72
2023-03-06T04:06:53.106Z,95119.13
2023-03-06T04:09:55.050Z,95107.75
2023-03-06T04:12:57.672Z,95115.81
2023-03-06T04:16:02.315Z,95110.56
2023-03-06T04:19:06.368Z,95100.03
2023-03-06T04:22:10.628Z,95102.78
2023-03-06T04:25:14.228Z,95098.47
2023-03-06T04:28:16.778Z,95100.16
2023-03-06T04:31:19.392Z,95095.00
2023-03-06T04:34:21.328Z,95092.38
2023-03-06T04:37:25.675Z,95096.69
2023-03-06T04:40:31.054Z,95096.69
2023-03-06T04:43:33.982Z,95088.78
2023-03-06T04:46:36.893Z,95086.16
2023-03-06T04:49:38.491Z,95080.06
2023-03-06T04:52:41.176Z,95081.84
2023-03-06T04:55:42.735Z,95068.13
2023-03-06T04:58:45.059Z,95070.50
2023-03-06T05:01:46.964Z,95070.50
2023-03-06T05:04:48.527Z,95073.25
2023-03-06T05:07:50.334Z,95063.44
2023-03-06T05:11:00.486Z,95058.28
2023-03-06T05:14:03.781Z,95069.66
2023-03-06T05:17:05.869Z,95066.19
2023-03-06T05:20:12.424Z,95067.03
2023-03-06T05:23:14.830Z,95068.81
2023-03-06T05:26:17.530Z,95058.41
2023-03-06T05:29:20.876Z,95054.94
2023-03-06T05:32:22.824Z,95055.94
2023-03-06T05:35:24.743Z,95056.91
2023-03-06T05:38:26.811Z,95057.75
2023-03-06T05:41:28.366Z,95056.78
2023-03-06T05:44:35.945Z,95057.59
2023-03-06T05:47:37.601Z,95049.84
2023-03-06T05:50:40.223Z,95055.94
2023-03-06T05:53:41.867Z,95068.13
2023-03-06T05:56:43.552Z,95056.91
2023-03-06T05:59:46.394Z,95061.22
2023-03-06T06:02:48.282Z,95062.28
2023-03-06T06:05:50.928Z,95061.59
2023-03-06T06:08:52.534Z,95064.81
2023-03-06T06:11:57.114Z,95074.38
2023-03-06T06:14:58.873Z,95069.09
2023-03-06T06:18:00.845Z,95065.63
2023-03-06T06:21:07.070Z,95061.88
2023-03-06T06:24:09.999Z,95064.53
2023-03-06T06:27:11.824Z,95066.63
2023-03-06T06:30:13.757Z,95070.06
2023-03-06T06:33:15.462Z,95073.28
2023-03-06T06:36:20.237Z,95077.59
2023-03-06T06:39:23.142Z,95071.50
2023-03-06T06:42:38.890Z,95068.56
2023-03-06T06:45:42.886Z,95067.63
2023-03-06T06:48:49.301Z,95067.38
2023-03-06T06:51:50.939Z,95068.75
2023-03-06T06:54:52.943Z,95065.97
2023-03-06T06:57:55.098Z,95061.28
2023-03-06T07:00:56.649Z,95063.94
2023-03-06T07:03:58.367Z,95066.16
2023-03-06T07:07:01.655Z,95069.31
2023-03-06T07:10:12.482Z,95070.03
2023-03-06T07:13:14.090Z,95073.50
2023-03-06T07:16:17.603Z,95078.50
2023-03-06T07:19:19.217Z,95075.16
2023-03-06T07:22:20.768Z,95075.03
2023-03-06T07:25:22.511Z,95085.16
2023-03-06T07:28:24.240Z,95087.53
2023-03-06T07:31:27.383Z,95074.91
2023-03-06T07:34:29.098Z,95083.53
2023-03-06T07:37:30.717Z,95080.63
2023-03-06T07:40:32.470Z,95088.09
2023-03-06T07:43:34.618Z,95085.34
2023-03-06T07:46:38.173Z,95086.84
2023-03-06T07:49:41.138Z,95095.47
2023-03-06T07:52:42.862Z,95098.81
2023-03-06T07:55:44.442Z,95094.38
2023-03-06T07:58:47.521Z,95095.88
2023-03-06T08:01:49.099Z,95093.13
2023-03-06T08:04:54.754Z,95096.44
2023-03-06T08:07:56.303Z,95099.78
2023-03-06T08:10:57.905Z,95109.91
2023-03-06T08:14:00.233Z,95114.22
2023-03-06T08:17:01.901Z,95109.66
2023-03-06T08:20:06.011Z,95113.78
2023-03-06T08:23:07.908Z,95115.47
2023-03-06T08:26:16.307Z,95110.75
2023-03-06T08:29:17.887Z,95117.84
2023-03-06T08:32:19.533Z,95125.31
2023-03-06T08:35:21.538Z,95127.25
2023-03-06T08:38:23.285Z,95126.69
2023-03-06T08:41:24.924Z,95133.50
2023-03-06T08:44:26.531Z,95126.31
2023-03-06T08:47:28.660Z,95134.75
2023-03-06T08:50:30.271Z,95124.22
2023-03-06T08:53:42.778Z,95129.09
2023-03-06T08:56:45.910Z,95135.88
2023-03-06T08:59:48.476Z,95133.81
2023-03-06T09:02:50.926Z,95140.75
2023-03-06T09:05:52.501Z,95142.25
2023-03-06T09:08:54.714Z,95137.94
2023-03-06T09:11:56.424Z,95136.16
2023-03-06T09:14:58.011Z,95135.88
2023-03-06T09:17:59.623Z,95133.25
2023-03-06T09:21:01.624Z,95138.38
2023-03-06T09:24:03.502Z,95146.16
2023-03-06T09:27:07.417Z,95139.34
2023-03-06T09:30:12.043Z,95139.22
2023-03-06T09:33:14.780Z,95140.44
2023-03-06T09:36:19.774Z,95127.69
2023-03-06T09:39:23.947Z,95145.84
2023-03-06T09:42:27.907Z,95140.59
2023-03-06T09:45:31.358Z,95143.22
2023-03-06T09:48:53.721Z,95139.06
2023-03-06T09:52:20.715Z,95139.78
2023-03-06T09:55:27.129Z,95132.28
2023-03-06T09:58:31.446Z,95135.31
2023-03-06T10:01:39.978Z,95133.50
2023-03-06T10:04:46.541Z,95141.56
2023-03-06T10:08:00.284Z,95130.75
2023-03-06T10:11:08.028Z,95127.81
2023-03-06T10:14:19.105Z,95134.50
2023-03-06T10:17:23.843Z,95134.34
2023-03-06T10:20:38.414Z,95136.81
2023-03-06T10:23:59.181Z,95123.38
2023-03-06T10:27:21.736Z,95118.81
2023-03-06T10:30:42.164Z,95130.84
2023-03-06T10:34:11.732Z,95124.59
2023-03-06T10:37:19.950Z,95126.16
2023-03-06T10:40:34.650Z,95130.84
2023-03-06T10:43:44.279Z,95118.66
2023-03-06T10:46:50.035Z,95120.88
2023-03-06T10:49:59.256Z,95102.09
2023-03-06T10:53:08.526Z,95107.25
2023-03-06T10:56:11.404Z,95108.63
2023-03-06T10:59:19.993Z,95113.63
2023-03-06T11:02:43.684Z,95115.97
2023-03-06T11:05:57.956Z,95117.22
2023-03-06T11:09:25.640Z,95108.47
2023-03-06T11:12:33.624Z,95107.34
2023-03-06T11:15:35.572Z,95113.88
2023-03-06T11:18:38.665Z,95114.25
2023-03-06T11:21:41.037Z,95114.97
2023-03-06T11:24:47.615Z,95113.16
2023-03-06T11:28:04.116Z,95112.44
2023-03-06T11:31:25.570Z,95114.13
2023-03-06T11:35:08.079Z,95103.31
2023-03-06T11:38:20.407Z,95112.31
2023-03-06T11:41:51.208Z,95110.25
2023-03-06T11:45:21.849Z,95114.94
2023-03-06T11:48:35.587Z,95099.75
2023-03-06T11:51:43.156Z,95103.78
2023-03-06T11:54:53.750Z,95087.94
2023-03-06T11:58:13.547Z,95092.91
2023-03-06T12:01:24.753Z,95088.19
2023-03-06T12:04:46.554Z,95082.47
2023-03-06T12:08:02.149Z,95073.06
2023-03-06T12:11:30.650Z,95087.03
2023-03-06T12:14:52.981Z,95071.03
2023-03-06T12:18:12.301Z,95068.03
2023-03-06T12:21:19.133Z,95067.75
2023-03-06T12:24:57.479Z,95067.03
2023-03-06T12:28:22.880Z,95067.13
2023-03-06T12:32:08.754Z,95065.38
2023-03-06T12:35:52.558Z,95058.44
2023-03-06T12:38:57.134Z,95057.84
2023-03-06T12:42:23.517Z,95050.53
2023-03-06T12:45:33.677Z,95053.47
2023-03-06T12:48:37.996Z,95053.84
2023-03-06T12:51:40.673Z,95051.88
2023-03-06T12:54:45.997Z,95043.44
2023-03-06T12:57:49.075Z,95042.00
2023-03-06T13:01:13.400Z,95043.50
2023-03-06T13:04:34.245Z,95037.06
2023-03-06T13:08:24.878Z,95036.31
2023-03-06T13:11:40.581Z,95041.81
2023-03-06T13:14:54.019Z,95042.19
2023-03-06T13:17:57.554Z,95033.94
2023-03-06T13:20:59.374Z,95034.16
2023-03-06T13:24:05.797Z,95032.34
2023-03-06T13:27:11.160Z,95038.31
2023-03-06T13:30:23.184Z,95031.66
2023-03-06T13:33:32.925Z,95026.06
2023-03-06T13:36:38.339Z,95026.91
2023-03-06T13:39:57.350Z,95024.56
2023-03-06T13:43:13.447Z,95015.78
2023-03-06T13:46:26.102Z,95014.50
2023-03-06T13:49:29.612Z,95025.38
2023-03-06T13:52:54.307Z,95022.59
2023-03-06T13:56:29.224Z,95023.41
2023-03-06T13:59:37.544Z,95025.22
2023-03-06T14:02:58.992Z,95025.72
2023-03-06T14:06:01.218Z,95019.72
2023-03-06T14:09:14.277Z,95017.09
2023-03-06T14:12:24.505Z,95019.88
2023-03-06T14:15:41.053Z,95013.75
2023-03-06T14:18:49.639Z,95004.84
2023-03-06T14:21:57.028Z,94995.91
2023-03-06T14:25:16.614Z,94999.06
2023-03-06T14:28:27.885Z,94999.75
2023-03-06T14:31:36.065Z,94993.47
2023-03-06T14:34:41.958Z,94988.19
2023-03-06T14:37:49.906Z,94992.03
2023-03-06T14:40:54.812Z,94991.38
2023-03-06T14:44:20.536Z,94990.41
2023-03-06T14:47:27.107Z,94994.94
2023-03-06T14:50:33.065Z,94996.44
2023-03-06T14:53:35.356Z,94992.13
2023-03-06T14:56:42.978Z,94994.25
2023-03-06T14:59:55.930Z,95013.59
2023-03-06T15:02:58.393Z,95013.19
2023-03-06T15:06:02.329Z,95024.47
2023-03-06T15:09:27.058Z,95020.84
2023-03-06T15:12:35.363Z,95022.06
2023-03-06T15:15:37.575Z,95024.09
2023-03-06T15:18:55.177Z,95016.25
2023-03-06T15:21:57.848Z,95021.59
2023-03-06T15:25:24.224Z,95020.06
2023-03-06T15:28:39.591Z,95012.59
2023-03-06T15:31:43.578Z,95007.47
2023-03-06T15:34:48.517Z,95009.59
2023-03-06T15:37:51.010Z,95006.16
2023-03-06T15:41:01.382Z,95002.53
2023-03-06T15:44:13.391Z,95000.72
2023-03-06T15:47:15.071Z,95007.84
2023-03-06T15:50:20.574Z,95012.13
2023-03-06T15:53:22.251Z,95018.25
2023-03-06T15:56:34.033Z,95009.22
2023-03-06T15:59:43.286Z,95010.19
2023-03-06T16:02:45.244Z,95019.78
2023-03-06T16:05:46.839Z,95017.97
2023-03-06T16:08:49.226Z,95014.19
2023-03-06T16:11:51.752Z,95017.38
2023-03-06T16:14:53.736Z,95010.13
2023-03-06T16:17:56.918Z,95008.88
2023-03-06T16:20:58.522Z,95010.97
2023-03-06T16:24:00.779Z,95015.56
2023-03-06T16:27:03.365Z,95007.63
2023-03-06T16:30:05.523Z,95007.78
2023-03-06T16:33:09.237Z,95013.75
2023-03-06T16:36:18.664Z,94998.19
2023-03-06T16:39:24.458Z,95000.22
2023-03-06T16:42:26.113Z,95006.34
2023-03-06T16:45:27.832Z,95009.66
2023-03-06T16:48:29.910Z,95005.66
2023-03-06T16:51:31.879Z,95009.53
2023-03-06T16:54:34.177Z,95007.03
2023-03-06T16:57:36.251Z,95008.97
2023-03-06T17:00:37.866Z,95021.06
2023-03-06T17:03:40.630Z,95014.25
2023-03-06T17:06:43.548Z,95014.25
2023-03-06T17:09:46.925Z,95017.03
2023-03-06T17:12:50.649Z,95011.53
2023-03-06T17:15:56.231Z,95021.97
2023-03-06T17:18:58.449Z,95019.78
2023-03-06T17:22:00.040Z,95019.63
2023-03-06T17:25:02.623Z,95022.44
2023-03-06T17:28:04.405Z,95035.78
2023-03-06T17:31:22.392Z,95040.53
2023-03-06T17:34:24.684Z,95038.06
2023-03-06T17:37:26.518Z,95037.50
2023-03-06T17:40:28.195Z,95037.28
2023-03-06T17:43:30.005Z,95034.63
2023-03-06T17:46:32.140Z,95038.56
2023-03-06T17:49:33.890Z,95041.50
2023-03-06T17:52:35.548Z,95037.50
2023-03-06T17:55:38.758Z,95034.44
2023-03-06T17:58:40.345Z,95036.69
2023-03-06T18:01:45.727Z,95041.84
2023-03-06T18:04:47.405Z,95048.38
2023-03-06T18:07:49.103Z,95052.03
2023-03-06T18:10:52.108Z,95063.00
2023-03-06T18:13:53.789Z,95060.81
2023-03-06T18:16:55.389Z,95063.75
2023-03-06T18:19:57.158Z,95063.75
2023-03-06T18:23:03.413Z,95070.00
2023-03-06T18:26:24.618Z,95066.28
2023-03-06T18:29:27.611Z,95065.75
2023-03-06T18:32:29.482Z,95070.06
2023-03-06T18:35:34.130Z,95068.66
2023-03-06T18:38:38.556Z,95071.31
2023-03-06T18:41:40.196Z,95063.97
2023-03-06T18:44:41.884Z,95068.53
2023-03-06T18:47:45.589Z,95072.03
2023-03-06T18:50:47.416Z,95059.13
2023-03-06T18:53:50.111Z,95064.69
2023-03-06T18:56:52.485Z,95062.03
2023-03-06T18:59:55.261Z,95067.47
2023-03-06T19:02:56.923Z,95074.72
2023-03-06T19:05:59.400Z,95067.22
2023-03-06T19:09:02.313Z,95066.22
2023-03-06T19:12:04.210Z,95067.34
2023-03-06T19:15:06.366Z,95066.69
2023-03-06T19:18:08.006Z,95074.72
2023-03-06T19:21:15.745Z,95081.94
2023-03-06T19:24:18.540Z,95079.44
2023-03-06T19:27:20.576Z,95090.00
2023-03-06T19:30:25.627Z,95080.59
2023-03-06T19:33:27.372Z,95074.75
2023-03-06T19:36:33.597Z,95081.69
2023-03-06T19:48:00.947Z,95074.91
2023-03-06T19:51:04.335Z,95075.03
2023-03-06T19:55:24.670Z,95086.56
2023-03-06T19:58:57.686Z,95088.25
2023-03-06T20:07:42.887Z,95093.91
2023-03-06T20:14:37.533Z,95091.84
2023-03-06T20:17:40.695Z,95080.44
2023-03-06T20:32:30.594Z,95087.47
2023-03-06T20:39:28.950Z,95094.28
2023-03-06T20:42:30.577Z,95084.56
2023-03-06T20:46:29.669Z,95085.28
2023-03-06T20:49:31.594Z,95085.41
2023-03-06T20:53:01.117Z,95089.72
2023-03-06T21:00:27.689Z,95079.28
2023-03-06T21:03:32.601Z,95080.97
2023-03-06T21:07:09.156Z,95084.56
2023-03-06T21:14:25.541Z,95083.03
2023-03-06T21:17:27.628Z,95079.44
2023-03-06T21:20:29.179Z,95083.03
2023-03-06T21:24:10.341Z,95079.28
2023-03-06T21:32:31.623Z,95071.66
2023-03-06T21:35:44.506Z,95085.00
2023-03-06T21:38:47.300Z,95074.47
2023-03-06T21:41:49.493Z,95073.75
2023-03-06T21:44:53.156Z,95076.53
2023-03-06T21:47:54.742Z,95065.16
2023-03-06T21:51:10.541Z,95068.63
2023-03-06T21:54:13.055Z,95068.63
2023-03-06T21:57:14.726Z,95059.03
2023-03-06T22:00:31.542Z,95059.16
2023-03-06T22:03:33.195Z,95060.16
2023-03-06T22:06:34.879Z,95059.34
2023-03-06T22:09:37.379Z,95056.69
2023-03-06T22:12:40.471Z,95041.00
2023-03-06T22:15:55.129Z,95048.09
2023-03-06T22:19:09.989Z,95045.59
2023-03-06T22:22:18.434Z,95040.59
2023-03-06T22:25:23.522Z,95040.59
2023-03-06T22:28:27.107Z,95028.53
2023-03-06T22:31:29.149Z,95024.22
2023-03-06T22:34:46.025Z,95026.03
2023-03-06T22:37:48.309Z,95030.47
2023-03-06T22:40:50.985Z,95018.41
2023-03-06T22:43:57.142Z,95011.59
2023-03-06T22:46:58.721Z,95010.31
2023-03-06T22:50:00.308Z,95014.78
2023-03-06T22:53:01.836Z,95005.34
2023-03-06T22:56:05.986Z,95006.19
2023-03-06T22:59:07.666Z,95009.66
2023-03-06T23:02:09.961Z,94997.59
2023-03-06T23:05:11.546Z,94995.78
2023-03-06T23:08:13.164Z,95008.97
2023-03-06T23:11:17.381Z,95006.47
2023-03-06T23:14:37.805Z,95005.63
2023-03-06T23:17:58.355Z,94993.59
2023-03-06T23:21:21.714Z,95013.00
2023-03-06T23:24:41.802Z,95007.75
2023-03-06T23:27:43.449Z,95015.78
2023-03-06T23:30:45.145Z,94999.41
2023-03-06T23:33:47.338Z,94996.50
2023-03-06T23:36:50.453Z,95001.63
2023-03-06T23:39:52.230Z,95004.28
2023-03-06T23:42:56.004Z,95006.91
2023-03-06T23:45:58.973Z,95010.38
2023-03-06T23:49:01.919Z,95006.91
2023-03-06T23:52:04.403Z,95004.28
2023-03-06T23:55:06.892Z,94999.97
2023-03-06T23:58:08.553Z,94997.31
